Angler Guide Weather for Port Hardy -
Port Hardy, British Columbia Current Weather Conditions
Enter your "Place, State", US Zip Code or ICAO:  
Forecast Information Radar Information
Port Hardy, British Columbia, Canada  Lat: 50.68N, Lon: 127.37W
ICAO Used: CYBL
Current Conditions
Updated:
Sun & Moon Information:
Temp: N/A
Humidity: N/A
Wind Speed: N/A
Barometer: N/A
Dewpoint: N/A
Heat Index: N/A
Wind Chill: N/A
Civil Twilight: 7:46 AM PST
Moonrise: 8:31 AM PST Moon Phase:
Waxing Crescent Moon
Waxing Crescent Moon
Moonset: 5:16 PM PST
Sunrise: 8:25 AM PST
Sunset: 4:24 PM PST
Civil Twilight: 5:03 PM PST
Forecast for Port Hardy, BC:
(Forecast based on TAF for )
0205 PM PST MON NOV 06 2006
  
AFTERNOONEVENING
LIGHT RAINMIST
Light
Rain
Mist
TAF based forecast:
Dated: 0205 PM PST MON NOV 06 2006
Afternoon...Fog with winds from the north west at 5 mph. Then turning mostly cloudy with winds from the south south east at 6 mph. Possible periods of overcast with light rain and mist. Then possible periods of mostly cloudy with mist.
Evening...Turning mostly cloudy with winds from the south south east at 6 mph. Possible periods of mostly cloudy with mist.
Original Encoded TAF:
Dated: 0205 PM PST MON NOV 06 2006
2006/11/06 22:05
CYBL 062205Z 062205 32004KT 1/4SM FG VV001 TEMPO 2201 3SM -RA BR SCT005 BKN020 OVC030 FM0100Z 16005KT P6SM SCT008 BKN040 TEMPO 0105 1SM BR BKN008=




Powered by Angler Guide.com
Copyright 2007, all rights reserved.